createdAt,value
2022-08-24T00:00:04.348Z,1016.04
2022-08-24T00:01:04.346Z,1016.02
2022-08-24T00:02:04.504Z,1016.01
2022-08-24T00:03:04.488Z,1016.06
2022-08-24T00:04:04.350Z,1016.04
2022-08-24T00:05:04.293Z,1016.07
2022-08-24T00:06:04.283Z,1016.05
2022-08-24T00:07:04.278Z,1016.09
2022-08-24T00:08:04.376Z,1016.12
2022-08-24T00:09:04.270Z,1016.09
2022-08-24T00:10:04.249Z,1016.14
2022-08-24T00:11:04.247Z,1016.13
2022-08-24T00:12:04.219Z,1016.20
2022-08-24T00:13:04.210Z,1016.15
2022-08-24T00:14:04.213Z,1016.11
2022-08-24T00:15:04.187Z,1016.21
2022-08-24T00:16:04.360Z,1016.18
2022-08-24T00:17:04.173Z,1016.13
2022-08-24T00:18:04.466Z,1016.17
2022-08-24T00:19:04.165Z,1016.13
2022-08-24T00:20:04.140Z,1016.15
2022-08-24T00:21:04.123Z,1016.16
2022-08-24T00:22:04.113Z,1016.12
2022-08-24T00:23:04.107Z,1016.07
2022-08-24T00:24:04.104Z,1015.99
2022-08-24T00:25:04.078Z,1016.10
2022-08-24T00:26:04.069Z,1016.06
2022-08-24T00:27:04.058Z,1016.16
2022-08-24T00:28:04.293Z,1016.11
2022-08-24T00:29:07.469Z,1016.09
2022-08-24T00:30:04.035Z,1016.08
2022-08-24T00:31:04.017Z,1016.06
2022-08-24T00:32:04.079Z,1016.04
2022-08-24T00:33:03.995Z,1016.05
2022-08-24T00:34:04.009Z,1016.12
2022-08-24T00:35:03.976Z,1016.08
2022-08-24T00:36:03.992Z,1016.16
2022-08-24T00:37:03.967Z,1016.14
2022-08-24T00:38:04.258Z,1016.14
2022-08-24T00:39:04.013Z,1016.15
2022-08-24T00:40:03.958Z,1016.12
2022-08-24T00:41:03.940Z,1016.13
2022-08-24T00:42:03.893Z,1016.10
2022-08-24T00:43:03.886Z,1016.15
2022-08-24T00:44:03.895Z,1016.15
2022-08-24T00:45:03.911Z,1016.13
2022-08-24T00:46:03.913Z,1016.12
2022-08-24T00:47:03.875Z,1016.15
2022-08-24T00:48:04.028Z,1016.17
2022-08-24T00:49:03.821Z,1016.19
2022-08-24T00:50:03.825Z,1016.20
2022-08-24T00:51:03.796Z,1016.15
2022-08-24T00:52:03.789Z,1016.17
2022-08-24T00:53:03.780Z,1016.16
2022-08-24T00:54:03.768Z,1016.16
2022-08-24T00:55:03.754Z,1016.15
2022-08-24T00:56:03.764Z,1016.11
2022-08-24T00:57:03.735Z,1016.13
2022-08-24T00:58:03.858Z,1016.09
2022-08-24T00:59:03.725Z,1016.12
2022-08-24T01:00:03.695Z,1016.15
2022-08-24T01:01:03.788Z,1016.12
2022-08-24T01:02:14.358Z,1016.13
2022-08-24T01:03:04.689Z,1016.17
2022-08-24T01:04:03.674Z,1016.13
2022-08-24T01:05:03.650Z,1016.17
2022-08-24T01:06:03.654Z,1016.07
2022-08-24T01:07:03.630Z,1016.13
2022-08-24T01:08:03.746Z,1016.08
2022-08-24T01:09:03.607Z,1016.07
2022-08-24T01:10:03.591Z,1016.15
2022-08-24T01:11:03.595Z,1016.10
2022-08-24T01:12:03.595Z,1016.08
2022-08-24T01:13:03.559Z,1016.13
2022-08-24T01:14:03.546Z,1016.08
2022-08-24T01:15:03.530Z,1016.07
2022-08-24T01:16:03.583Z,1016.05
2022-08-24T01:17:03.528Z,1016.08
2022-08-24T01:18:03.642Z,1016.09
2022-08-24T01:19:03.493Z,1016.04
2022-08-24T01:20:03.486Z,1016.08
2022-08-24T01:21:03.469Z,1016.12
2022-08-24T01:22:03.471Z,1016.06
2022-08-24T01:23:03.447Z,1016.10
2022-08-24T01:24:03.433Z,1016.12
2022-08-24T01:25:03.437Z,1016.13
2022-08-24T01:26:03.409Z,1016.04
2022-08-24T01:27:03.414Z,1016.12
2022-08-24T01:28:05.523Z,1016.07
2022-08-24T01:29:03.379Z,1016.11
2022-08-24T01:30:03.367Z,1016.13
2022-08-24T01:31:03.392Z,1016.09
2022-08-24T01:32:03.374Z,1016.15
2022-08-24T01:33:03.351Z,1016.15
2022-08-24T01:34:05.110Z,1016.16
2022-08-24T01:35:03.314Z,1016.17
2022-08-24T01:36:03.320Z,1016.19
2022-08-24T01:37:03.318Z,1016.13
2022-08-24T01:38:03.479Z,1016.16
2022-08-24T01:39:03.275Z,1016.22
2022-08-24T01:40:03.302Z,1016.19
2022-08-24T01:41:03.252Z,1016.21
2022-08-24T01:42:03.261Z,1016.24
2022-08-24T01:43:03.233Z,1016.18
2022-08-24T01:44:03.214Z,1016.24
2022-08-24T01:45:03.202Z,1016.26
2022-08-24T01:46:03.189Z,1016.24
2022-08-24T01:47:06.763Z,1016.22
2022-08-24T01:48:03.374Z,1016.23
2022-08-24T01:49:03.154Z,1016.28
2022-08-24T01:50:03.161Z,1016.23
2022-08-24T01:51:03.144Z,1016.20
2022-08-24T01:52:03.151Z,1016.33
2022-08-24T01:53:05.669Z,1016.28
2022-08-24T01:54:03.128Z,1016.31
2022-08-24T01:55:03.090Z,1016.26
2022-08-24T01:56:03.084Z,1016.29
2022-08-24T01:57:03.133Z,1016.30
2022-08-24T01:58:03.060Z,1016.27
2022-08-24T01:59:03.047Z,1016.23
2022-08-24T02:00:03.038Z,1016.22
2022-08-24T02:01:03.037Z,1016.26
2022-08-24T02:02:03.069Z,1016.28
2022-08-24T02:03:03.401Z,1016.33
2022-08-24T02:04:03.004Z,1016.26
2022-08-24T02:05:02.987Z,1016.34
2022-08-24T02:06:02.965Z,1016.32
2022-08-24T02:07:02.961Z,1016.28
2022-08-24T02:08:02.971Z,1016.30
2022-08-24T02:09:02.935Z,1016.34
2022-08-24T02:10:02.937Z,1016.25
2022-08-24T02:11:02.917Z,1016.24
2022-08-24T02:12:02.902Z,1016.23
2022-08-24T02:13:03.093Z,1016.24
2022-08-24T02:14:02.884Z,1016.25
2022-08-24T02:15:02.875Z,1016.25
2022-08-24T02:16:02.900Z,1016.29
2022-08-24T02:17:02.845Z,1016.23
2022-08-24T02:18:02.857Z,1016.32
2022-08-24T02:19:02.828Z,1016.23
2022-08-24T02:20:02.816Z,1016.25
2022-08-24T02:21:02.807Z,1016.29
2022-08-24T02:22:02.799Z,1016.28
2022-08-24T02:23:02.988Z,1016.29
2022-08-24T02:24:02.770Z,1016.26
2022-08-24T02:25:02.763Z,1016.23
2022-08-24T02:26:02.773Z,1016.23
2022-08-24T02:27:02.739Z,1016.24
2022-08-24T02:28:02.747Z,1016.23
2022-08-24T02:29:03.874Z,1016.24
2022-08-24T02:30:02.707Z,1016.21
2022-08-24T02:31:02.782Z,1016.20
2022-08-24T02:32:02.687Z,1016.18
2022-08-24T02:33:02.951Z,1016.23
2022-08-24T02:34:02.685Z,1016.19
2022-08-24T02:35:02.655Z,1016.21
2022-08-24T02:36:02.640Z,1016.24
2022-08-24T02:37:02.639Z,1016.20
2022-08-24T02:38:02.629Z,1016.24
2022-08-24T02:39:02.611Z,1016.25
2022-08-24T02:40:02.641Z,1016.24
2022-08-24T02:41:02.585Z,1016.17
2022-08-24T02:42:02.574Z,1016.24
2022-08-24T02:43:02.665Z,1016.22
2022-08-24T02:44:02.556Z,1016.22
2022-08-24T02:45:02.540Z,1016.24
2022-08-24T02:46:02.632Z,1016.24
2022-08-24T02:47:02.519Z,1016.24
2022-08-24T02:48:02.529Z,1016.16
2022-08-24T02:49:11.074Z,1016.25
2022-08-24T02:50:03.484Z,1016.17
2022-08-24T02:51:02.485Z,1016.19
2022-08-24T02:52:02.466Z,1016.10
2022-08-24T02:53:02.631Z,1016.09
2022-08-24T02:54:02.445Z,1016.13
2022-08-24T02:55:02.479Z,1016.05
2022-08-24T02:56:02.424Z,1016.10
2022-08-24T02:57:02.406Z,1016.13
2022-08-24T02:58:02.417Z,1016.12
2022-08-24T02:59:02.390Z,1016.19
2022-08-24T03:00:04.961Z,1016.10
2022-08-24T03:01:02.403Z,1016.13
2022-08-24T03:02:02.409Z,1016.12
2022-08-24T03:03:02.828Z,1016.11
2022-08-24T03:04:02.407Z,1016.11
2022-08-24T03:05:02.323Z,1016.12
2022-08-24T03:06:02.307Z,1016.09
2022-08-24T03:07:02.298Z,1016.01
2022-08-24T03:08:02.302Z,1016.10
2022-08-24T03:09:02.272Z,1016.10
2022-08-24T03:10:02.269Z,1016.11
2022-08-24T03:11:02.259Z,1016.02
2022-08-24T03:12:02.243Z,1016.06
2022-08-24T03:13:02.507Z,1016.09
2022-08-24T03:14:02.225Z,1016.07
2022-08-24T03:15:02.220Z,1016.09
2022-08-24T03:16:02.324Z,1016.02
2022-08-24T03:17:02.194Z,1016.10
2022-08-24T03:18:02.189Z,1016.12
2022-08-24T03:19:02.167Z,1016.03
2022-08-24T03:20:02.162Z,1016.12
2022-08-24T03:21:02.160Z,1016.10
2022-08-24T03:22:02.137Z,1016.10
2022-08-24T03:23:02.327Z,1016.14
2022-08-24T03:24:02.112Z,1016.12
2022-08-24T03:25:02.105Z,1016.13
2022-08-24T03:26:02.090Z,1016.09
2022-08-24T03:27:02.078Z,1016.10
2022-08-24T03:28:02.072Z,1016.15
2022-08-24T03:29:02.076Z,1016.17
2022-08-24T03:30:02.043Z,1016.11
2022-08-24T03:31:02.150Z,1016.16
2022-08-24T03:32:02.020Z,1016.17
2022-08-24T03:33:02.191Z,1016.20
2022-08-24T03:34:02.029Z,1016.10
2022-08-24T03:35:01.982Z,1016.13
2022-08-24T03:36:01.978Z,1016.17
2022-08-24T03:37:01.971Z,1016.14
2022-08-24T03:38:01.950Z,1016.20
2022-08-24T03:39:01.954Z,1016.17
2022-08-24T03:40:02.002Z,1016.21
2022-08-24T03:41:01.926Z,1016.15
2022-08-24T03:42:01.921Z,1016.16
2022-08-24T03:43:01.986Z,1016.14
2022-08-24T03:44:01.916Z,1016.10
2022-08-24T03:45:01.876Z,1016.17
2022-08-24T03:46:01.938Z,1016.09
2022-08-24T03:47:01.860Z,1016.13
2022-08-24T03:48:01.844Z,1016.12
2022-08-24T03:49:01.855Z,1016.13
2022-08-24T03:50:01.824Z,1016.12
2022-08-24T03:51:01.826Z,1016.13
2022-08-24T03:52:01.804Z,1016.16
2022-08-24T03:53:01.888Z,1016.14
2022-08-24T03:54:01.795Z,1016.17
2022-08-24T03:55:01.766Z,1016.18
2022-08-24T03:56:01.759Z,1016.19
2022-08-24T03:57:02.748Z,1016.23
2022-08-24T03:58:01.736Z,1016.22
2022-08-24T03:59:01.736Z,1016.23
2022-08-24T04:00:01.713Z,1016.29
2022-08-24T04:01:01.739Z,1016.26
2022-08-24T04:02:01.744Z,1016.24
2022-08-24T04:03:01.748Z,1016.27
2022-08-24T04:04:01.688Z,1016.30
2022-08-24T04:05:01.656Z,1016.27
2022-08-24T04:06:01.655Z,1016.24
2022-08-24T04:07:01.637Z,1016.32
2022-08-24T04:08:01.650Z,1016.30
2022-08-24T04:09:01.637Z,1016.28
2022-08-24T04:10:01.602Z,1016.33
2022-08-24T04:11:01.600Z,1016.29
2022-08-24T04:12:01.579Z,1016.31
2022-08-24T04:13:01.703Z,1016.34
2022-08-24T04:14:01.568Z,1016.28
2022-08-24T04:15:01.599Z,1016.34
2022-08-24T04:16:01.553Z,1016.37
2022-08-24T04:17:01.547Z,1016.35
2022-08-24T04:18:01.515Z,1016.34
2022-08-24T04:19:01.518Z,1016.36
2022-08-24T04:20:01.495Z,1016.36
2022-08-24T04:21:01.482Z,1016.37
2022-08-24T04:22:01.473Z,1016.39
2022-08-24T04:23:01.466Z,1016.34
2022-08-24T04:24:01.463Z,1016.43
2022-08-24T04:25:01.469Z,1016.43
2022-08-24T04:26:01.429Z,1016.41
2022-08-24T04:27:01.418Z,1016.44
2022-08-24T04:28:01.404Z,1016.43
2022-08-24T04:29:01.408Z,1016.52
2022-08-24T04:30:01.391Z,1016.47
2022-08-24T04:31:01.375Z,1016.46
2022-08-24T04:32:01.392Z,1016.54
2022-08-24T04:33:01.357Z,1016.45
2022-08-24T04:34:01.341Z,1016.45
2022-08-24T04:35:01.354Z,1016.45
2022-08-24T04:36:01.334Z,1016.47
2022-08-24T04:37:01.307Z,1016.49
2022-08-24T04:38:01.308Z,1016.51
2022-08-24T04:39:01.333Z,1016.49
2022-08-24T04:40:01.299Z,1016.51
2022-08-24T04:41:01.265Z,1016.51
2022-08-24T04:42:03.197Z,1016.55
2022-08-24T04:43:01.243Z,1016.53
2022-08-24T04:44:01.256Z,1016.63
2022-08-24T04:45:01.215Z,1016.59
2022-08-24T04:46:01.241Z,1016.65
2022-08-24T04:47:01.202Z,1016.64
2022-08-24T04:48:01.190Z,1016.74
2022-08-24T04:49:01.173Z,1016.73
2022-08-24T04:50:01.190Z,1016.68
2022-08-24T04:51:01.160Z,1016.68
2022-08-24T04:52:01.148Z,1016.60
2022-08-24T04:53:01.136Z,1016.62
2022-08-24T04:54:01.122Z,1016.64
2022-08-24T04:55:01.140Z,1016.63
2022-08-24T04:56:01.102Z,1016.63
2022-08-24T04:57:01.113Z,1016.66
2022-08-24T04:58:01.195Z,1016.65
2022-08-24T04:59:01.066Z,1016.64
2022-08-24T05:00:01.075Z,1016.68
2022-08-24T05:01:01.067Z,1016.73
2022-08-24T05:02:01.112Z,1016.67
2022-08-24T05:03:01.077Z,1016.64
2022-08-24T05:04:01.015Z,1016.67
2022-08-24T05:05:01.041Z,1016.76
2022-08-24T05:06:00.998Z,1016.75
2022-08-24T05:07:00.996Z,1016.71
2022-08-24T05:08:00.977Z,1016.80
2022-08-24T05:09:00.962Z,1016.75
2022-08-24T05:10:00.984Z,1016.75
2022-08-24T05:11:00.947Z,1016.75
2022-08-24T05:12:00.924Z,1016.74
2022-08-24T05:13:00.912Z,1016.80
2022-08-24T05:14:00.902Z,1016.78
2022-08-24T05:15:00.911Z,1016.80
2022-08-24T05:16:00.945Z,1016.87
2022-08-24T05:17:00.867Z,1016.84
2022-08-24T05:18:00.872Z,1016.83
2022-08-24T05:19:00.854Z,1016.85
2022-08-24T05:20:00.852Z,1016.90
2022-08-24T05:21:00.838Z,1016.83
2022-08-24T05:22:00.812Z,1016.92
2022-08-24T05:23:03.896Z,1016.90
2022-08-24T05:24:00.812Z,1016.90
2022-08-24T05:25:00.798Z,1017.00
2022-08-24T05:26:00.781Z,1016.91
2022-08-24T05:27:00.762Z,1017.01
2022-08-24T05:28:00.753Z,1017.06
2022-08-24T05:29:00.747Z,1017.06
2022-08-24T05:30:00.743Z,1017.01
2022-08-24T05:31:00.751Z,1017.04
2022-08-24T05:32:00.721Z,1016.98
2022-08-24T05:33:00.790Z,1016.97
2022-08-24T05:34:00.689Z,1017.01
2022-08-24T05:35:00.706Z,1017.04
2022-08-24T05:36:00.663Z,1016.98
2022-08-24T05:37:00.662Z,1017.03
2022-08-24T05:38:00.648Z,1017.00
2022-08-24T05:39:00.629Z,1016.98
2022-08-24T05:40:00.637Z,1017.05
2022-08-24T05:41:00.619Z,1017.03
2022-08-24T05:42:00.606Z,1017.00
2022-08-24T05:43:00.691Z,1017.04
2022-08-24T05:44:00.580Z,1016.96
2022-08-24T05:45:00.577Z,1016.93
2022-08-24T05:46:00.558Z,1016.94
2022-08-24T05:47:00.614Z,1016.97
2022-08-24T05:48:00.534Z,1016.95
2022-08-24T05:49:00.535Z,1017.04
2022-08-24T05:50:00.538Z,1017.05
2022-08-24T05:51:00.511Z,1016.96
2022-08-24T05:52:00.495Z,1016.98
2022-08-24T05:53:00.575Z,1016.98
2022-08-24T05:54:00.469Z,1016.95
2022-08-24T05:55:00.469Z,1016.96
2022-08-24T05:56:00.455Z,1017.04
2022-08-24T05:57:00.430Z,1016.99
2022-08-24T05:58:00.447Z,1017.00
2022-08-24T05:59:00.436Z,1017.04
2022-08-24T06:00:00.454Z,1017.10
2022-08-24T06:01:00.401Z,1017.08
2022-08-24T06:02:00.425Z,1017.10
2022-08-24T06:03:00.504Z,1017.09
2022-08-24T06:04:00.365Z,1017.15
2022-08-24T06:05:00.345Z,1017.11
2022-08-24T06:06:00.352Z,1017.16
2022-08-24T06:07:00.327Z,1017.16
2022-08-24T06:08:00.317Z,1017.12
2022-08-24T06:09:00.315Z,1017.12
2022-08-24T06:10:14.632Z,1017.18
2022-08-24T06:11:01.321Z,1017.18
2022-08-24T06:12:00.271Z,1017.20
2022-08-24T06:13:00.385Z,1017.18
2022-08-24T06:14:00.251Z,1017.09
2022-08-24T06:15:00.233Z,1017.15
2022-08-24T06:16:20.281Z,1017.14
2022-08-24T06:17:01.331Z,1017.18
2022-08-24T06:18:00.410Z,1017.18
2022-08-24T06:19:00.192Z,1017.18
2022-08-24T06:20:00.191Z,1017.16
2022-08-24T06:21:00.184Z,1017.16
2022-08-24T06:22:00.183Z,1017.19
2022-08-24T06:23:00.278Z,1017.16
2022-08-24T06:24:00.133Z,1017.19
2022-08-24T06:25:00.142Z,1017.19
2022-08-24T06:26:00.230Z,1017.17
2022-08-24T06:27:00.101Z,1017.14
2022-08-24T06:28:00.117Z,1017.12
2022-08-24T06:29:00.082Z,1017.14
2022-08-24T06:30:00.081Z,1017.15
2022-08-24T06:31:00.147Z,1017.14
2022-08-24T06:32:00.111Z,1017.13
2022-08-24T06:33:00.138Z,1017.18
2022-08-24T06:34:00.056Z,1017.19
2022-08-24T06:35:00.012Z,1017.23
2022-08-24T06:36:00.018Z,1017.24
2022-08-24T06:36:59.993Z,1017.22
2022-08-24T06:37:59.986Z,1017.29
2022-08-24T06:38:59.988Z,1017.22
2022-08-24T06:40:00.138Z,1017.22
2022-08-24T06:40:59.960Z,1017.24
2022-08-24T06:41:59.976Z,1017.20
2022-08-24T06:43:00.000Z,1017.25
2022-08-24T06:43:59.928Z,1017.22
2022-08-24T06:44:59.925Z,1017.20
2022-08-24T06:45:59.928Z,1017.29
2022-08-24T06:46:59.917Z,1017.28
2022-08-24T06:47:59.892Z,1017.30
2022-08-24T06:48:59.857Z,1017.29
2022-08-24T06:49:59.853Z,1017.38
2022-08-24T06:50:59.882Z,1017.31
2022-08-24T06:51:59.864Z,1017.31
2022-08-24T06:52:59.876Z,1017.27
2022-08-24T06:53:59.805Z,1017.36
2022-08-24T06:54:59.797Z,1017.36
2022-08-24T06:55:59.795Z,1017.41
2022-08-24T06:56:59.798Z,1017.40
2022-08-24T06:57:59.757Z,1017.40
2022-08-24T06:58:59.752Z,1017.43
2022-08-24T06:59:59.741Z,1017.44
2022-08-24T07:00:59.744Z,1017.42
2022-08-24T07:01:59.805Z,1017.40
2022-08-24T07:03:00.003Z,1017.41
2022-08-24T07:03:59.702Z,1017.44
2022-08-24T07:04:59.683Z,1017.49
2022-08-24T07:05:59.692Z,1017.38
2022-08-24T07:06:59.660Z,1017.40
2022-08-24T07:07:59.657Z,1017.49
2022-08-24T07:08:59.638Z,1017.52
2022-08-24T07:09:59.627Z,1017.47
2022-08-24T07:10:59.633Z,1017.55
2022-08-24T07:11:59.611Z,1017.56
2022-08-24T07:12:59.649Z,1017.55
2022-08-24T07:13:59.594Z,1017.53
2022-08-24T07:14:59.576Z,1017.54
2022-08-24T07:15:59.630Z,1017.51
2022-08-24T07:16:59.563Z,1017.49
2022-08-24T07:17:59.542Z,1017.51
2022-08-24T07:18:59.529Z,1017.50
2022-08-24T07:19:59.517Z,1017.49
2022-08-24T07:20:59.510Z,1017.54
2022-08-24T07:21:59.508Z,1017.45
2022-08-24T07:22:59.541Z,1017.51
2022-08-24T07:23:59.473Z,1017.48
2022-08-24T07:24:59.473Z,1017.49
2022-08-24T07:25:59.451Z,1017.43
2022-08-24T07:26:59.455Z,1017.50
2022-08-24T07:27:59.476Z,1017.51
2022-08-24T07:28:59.421Z,1017.51
2022-08-24T07:30:23.265Z,1017.47
2022-08-24T07:31:00.592Z,1017.47
2022-08-24T07:31:59.413Z,1017.53
2022-08-24T07:32:59.373Z,1017.49
2022-08-24T07:33:59.364Z,1017.56
2022-08-24T07:34:59.353Z,1017.58
2022-08-24T07:35:59.347Z,1017.52
2022-08-24T07:36:59.351Z,1017.50
2022-08-24T07:37:59.357Z,1017.57
2022-08-24T07:38:59.305Z,1017.50
2022-08-24T07:39:59.434Z,1017.51
2022-08-24T07:41:33.218Z,1017.54
2022-08-24T07:42:22.976Z,1017.55
2022-08-24T07:43:00.265Z,1017.55
2022-08-24T07:43:59.253Z,1017.57
2022-08-24T07:44:59.250Z,1017.58
2022-08-24T07:45:59.283Z,1017.60
2022-08-24T07:47:10.353Z,1017.56
2022-08-24T07:49:11.673Z,1017.58
2022-08-24T07:50:00.212Z,1017.64
2022-08-24T07:50:59.179Z,1017.62
2022-08-24T07:51:59.181Z,1017.61
2022-08-24T07:52:59.156Z,1017.63
2022-08-24T07:53:59.138Z,1017.60
2022-08-24T07:54:59.141Z,1017.57
2022-08-24T07:55:59.128Z,1017.66
2022-08-24T07:56:59.123Z,1017.70
2022-08-24T07:57:59.103Z,1017.69
2022-08-24T07:58:59.097Z,1017.68
2022-08-24T07:59:59.094Z,1017.70
2022-08-24T08:00:59.079Z,1017.70
2022-08-24T08:01:59.151Z,1017.62
2022-08-24T08:02:59.174Z,1017.62
2022-08-24T08:03:59.034Z,1017.68
2022-08-24T08:04:59.037Z,1017.67
2022-08-24T08:05:59.016Z,1017.69
2022-08-24T08:06:59.028Z,1017.69
2022-08-24T08:07:59.161Z,1017.74
2022-08-24T08:08:58.980Z,1017.77
2022-08-24T08:09:58.978Z,1017.72
2022-08-24T08:10:58.967Z,1017.79
2022-08-24T08:11:58.954Z,1017.79
2022-08-24T08:12:58.957Z,1017.76
2022-08-24T08:13:58.926Z,1017.77
2022-08-24T08:14:58.915Z,1017.81
2022-08-24T08:15:59.947Z,1017.81
2022-08-24T08:16:58.897Z,1017.74
2022-08-24T08:17:58.892Z,1017.78
2022-08-24T08:19:12.007Z,1017.74
2022-08-24T08:19:59.863Z,1017.72
2022-08-24T08:20:58.852Z,1017.78
2022-08-24T08:21:58.847Z,1017.71
2022-08-24T08:22:58.845Z,1017.76
2022-08-24T08:23:58.818Z,1017.74
2022-08-24T08:24:58.803Z,1017.74
2022-08-24T08:25:58.800Z,1017.69
2022-08-24T08:26:58.785Z,1017.75
2022-08-24T08:28:04.350Z,1017.76
2022-08-24T08:28:59.763Z,1017.71
2022-08-24T08:29:58.761Z,1017.72
2022-08-24T08:30:58.800Z,1017.72
2022-08-24T08:31:58.724Z,1017.72
2022-08-24T08:32:58.730Z,1017.74
2022-08-24T08:33:58.729Z,1017.81
2022-08-24T08:35:02.097Z,1017.79
2022-08-24T08:35:58.702Z,1017.82
2022-08-24T08:36:58.675Z,1017.75
2022-08-24T08:37:58.802Z,1017.78
2022-08-24T08:38:58.647Z,1017.83
2022-08-24T08:39:58.713Z,1017.76
2022-08-24T08:40:58.629Z,1017.73
2022-08-24T08:41:58.634Z,1017.77
2022-08-24T08:42:58.627Z,1017.79
2022-08-24T08:43:58.626Z,1017.77
2022-08-24T08:44:58.602Z,1017.82
2022-08-24T08:45:58.616Z,1017.80
2022-08-24T08:46:58.578Z,1017.80
2022-08-24T08:47:58.665Z,1017.79
2022-08-24T08:48:58.542Z,1017.78
2022-08-24T08:49:58.555Z,1017.77
2022-08-24T08:50:58.516Z,1017.84
2022-08-24T08:51:58.524Z,1017.83
2022-08-24T08:52:58.518Z,1017.90
2022-08-24T08:53:58.477Z,1017.89
2022-08-24T08:54:58.490Z,1017.90
2022-08-24T08:55:58.454Z,1017.95
2022-08-24T08:56:59.540Z,1017.95
2022-08-24T08:57:58.459Z,1017.89
2022-08-24T08:58:59.563Z,1017.95
2022-08-24T08:59:58.411Z,1017.94
2022-08-24T09:00:58.426Z,1017.97
2022-08-24T09:01:58.424Z,1017.93
2022-08-24T09:02:58.475Z,1017.93
2022-08-24T09:03:58.402Z,1017.98
2022-08-24T09:04:58.385Z,1017.88
2022-08-24T09:05:58.358Z,1017.99
2022-08-24T09:06:58.339Z,1017.94
2022-08-24T09:07:58.353Z,1017.97
2022-08-24T09:08:58.319Z,1017.92
2022-08-24T09:09:58.307Z,1017.95
2022-08-24T09:10:58.295Z,1017.95
2022-08-24T09:11:58.300Z,1017.91
2022-08-24T09:12:58.286Z,1017.88
2022-08-24T09:13:58.259Z,1017.92
2022-08-24T09:14:58.259Z,1017.87
2022-08-24T09:15:58.238Z,1017.91
2022-08-24T09:16:58.317Z,1017.91
2022-08-24T09:17:58.283Z,1017.93
2022-08-24T09:18:58.236Z,1017.93
2022-08-24T09:19:58.199Z,1017.90
2022-08-24T09:20:58.193Z,1017.87
2022-08-24T09:21:58.175Z,1017.83
2022-08-24T09:22:58.169Z,1017.89
2022-08-24T09:23:58.187Z,1017.90
2022-08-24T09:24:58.157Z,1017.88
2022-08-24T09:25:58.150Z,1017.88
2022-08-24T09:26:58.120Z,1017.88
2022-08-24T09:27:58.122Z,1017.89
2022-08-24T09:28:58.161Z,1017.88
2022-08-24T09:29:58.091Z,1017.90
2022-08-24T09:30:58.178Z,1017.98
2022-08-24T09:31:58.076Z,1017.93
2022-08-24T09:32:58.076Z,1018.00
2022-08-24T09:33:58.063Z,1017.98
2022-08-24T09:34:58.037Z,1017.95
2022-08-24T09:35:58.035Z,1017.95
2022-08-24T09:36:58.022Z,1017.97
2022-08-24T09:37:57.999Z,1017.90
2022-08-24T09:38:58.011Z,1017.91
2022-08-24T09:39:58.025Z,1017.89
2022-08-24T09:40:57.979Z,1017.93
2022-08-24T09:41:57.987Z,1017.91
2022-08-24T09:42:57.990Z,1017.86
2022-08-24T09:44:02.722Z,1017.89
2022-08-24T09:44:58.975Z,1017.89
2022-08-24T09:45:57.982Z,1017.92
2022-08-24T09:46:57.914Z,1017.92
2022-08-24T09:47:57.901Z,1017.91
2022-08-24T09:48:57.900Z,1017.89
2022-08-24T09:49:57.878Z,1017.92
2022-08-24T09:50:57.869Z,1017.87
2022-08-24T09:51:57.883Z,1017.95
2022-08-24T09:52:57.914Z,1017.84
2022-08-24T09:53:57.835Z,1017.89
2022-08-24T09:54:57.854Z,1017.93
2022-08-24T09:55:57.808Z,1017.92
2022-08-24T09:57:11.559Z,1017.80
2022-08-24T09:58:08.985Z,1017.89
2022-08-24T09:58:58.784Z,1017.86
2022-08-24T09:59:57.784Z,1017.89
2022-08-24T10:00:57.789Z,1017.91
2022-08-24T10:01:57.765Z,1017.90
2022-08-24T10:02:57.816Z,1017.89
2022-08-24T10:03:57.733Z,1017.86
2022-08-24T10:04:57.831Z,1017.90
2022-08-24T10:05:57.843Z,1017.87
2022-08-24T10:06:57.700Z,1017.94
2022-08-24T10:07:57.676Z,1017.91
2022-08-24T10:08:57.678Z,1017.93
2022-08-24T10:09:57.701Z,1017.92
2022-08-24T10:10:57.652Z,1017.86
2022-08-24T10:11:57.636Z,1017.87
2022-08-24T10:12:57.622Z,1017.86
2022-08-24T10:13:57.615Z,1017.84
2022-08-24T10:14:57.627Z,1017.86
2022-08-24T10:15:57.590Z,1017.87
2022-08-24T10:16:57.636Z,1017.84
2022-08-24T10:17:57.633Z,1017.86
2022-08-24T10:18:57.586Z,1017.82
2022-08-24T10:19:57.578Z,1017.85
2022-08-24T10:20:57.540Z,1017.87
2022-08-24T10:21:57.529Z,1017.83
2022-08-24T10:22:57.522Z,1017.76
2022-08-24T10:23:57.513Z,1017.76
2022-08-24T10:24:57.539Z,1017.71
2022-08-24T10:25:57.494Z,1017.73
2022-08-24T10:26:57.478Z,1017.68
2022-08-24T10:27:57.541Z,1017.73
2022-08-24T10:28:57.464Z,1017.70
2022-08-24T10:29:57.464Z,1017.68
2022-08-24T10:30:57.455Z,1017.69
2022-08-24T10:31:57.464Z,1017.66
2022-08-24T10:32:57.419Z,1017.71
2022-08-24T10:33:57.427Z,1017.70
2022-08-24T10:34:57.400Z,1017.71
2022-08-24T10:35:57.412Z,1017.66
2022-08-24T10:36:57.401Z,1017.68
2022-08-24T10:37:57.447Z,1017.63
2022-08-24T10:38:57.363Z,1017.66
2022-08-24T10:40:01.854Z,1017.69
2022-08-24T10:40:58.369Z,1017.64
2022-08-24T10:41:57.322Z,1017.69
2022-08-24T10:42:57.327Z,1017.69
2022-08-24T10:43:57.307Z,1017.65
2022-08-24T10:44:57.279Z,1017.60
2022-08-24T10:45:57.423Z,1017.62
2022-08-24T10:46:58.873Z,1017.64
2022-08-24T10:47:57.302Z,1017.67
2022-08-24T10:48:57.249Z,1017.64
2022-08-24T10:49:57.265Z,1017.68
2022-08-24T10:50:57.248Z,1017.63
2022-08-24T10:51:57.202Z,1017.65
2022-08-24T10:52:57.212Z,1017.60
2022-08-24T10:53:57.202Z,1017.56
2022-08-24T10:54:57.180Z,1017.60
2022-08-24T10:55:57.192Z,1017.65
2022-08-24T10:56:57.170Z,1017.61
2022-08-24T10:57:57.156Z,1017.59
2022-08-24T10:58:57.131Z,1017.60
2022-08-24T10:59:57.131Z,1017.66
2022-08-24T11:00:57.174Z,1017.60
2022-08-24T11:01:57.108Z,1017.61
2022-08-24T11:02:57.089Z,1017.55
2022-08-24T11:03:57.091Z,1017.53
2022-08-24T11:04:57.064Z,1017.52
2022-08-24T11:05:57.065Z,1017.58
2022-08-24T11:06:57.046Z,1017.59
2022-08-24T11:07:57.030Z,1017.68
2022-08-24T11:08:57.030Z,1017.53
2022-08-24T11:09:57.014Z,1017.58
2022-08-24T11:10:57.023Z,1017.53
2022-08-24T11:11:56.993Z,1017.60
2022-08-24T11:12:56.987Z,1017.57
2022-08-24T11:13:56.966Z,1017.53
2022-08-24T11:14:56.993Z,1017.56
2022-08-24T11:15:57.039Z,1017.58
2022-08-24T11:16:58.058Z,1017.54
2022-08-24T11:17:56.919Z,1017.53
2022-08-24T11:18:56.917Z,1017.51
2022-08-24T11:19:56.904Z,1017.49
2022-08-24T11:20:56.911Z,1017.52
2022-08-24T11:21:56.891Z,1017.49
2022-08-24T11:22:56.891Z,1017.46
2022-08-24T11:23:56.867Z,1017.45
2022-08-24T11:24:56.857Z,1017.45
2022-08-24T11:25:56.844Z,1017.45
2022-08-24T11:26:56.851Z,1017.41
2022-08-24T11:27:56.821Z,1017.44
2022-08-24T11:28:56.808Z,1017.44
2022-08-24T11:29:56.794Z,1017.44
2022-08-24T11:30:56.803Z,1017.44
2022-08-24T11:31:56.842Z,1017.44
2022-08-24T11:32:56.767Z,1017.43
2022-08-24T11:33:56.755Z,1017.43
2022-08-24T11:34:56.765Z,1017.45
2022-08-24T11:35:56.739Z,1017.40
2022-08-24T11:36:56.737Z,1017.38
2022-08-24T11:37:56.712Z,1017.45
2022-08-24T11:38:56.695Z,1017.36
2022-08-24T11:39:56.721Z,1017.38
2022-08-24T11:40:56.676Z,1017.44
2022-08-24T11:41:56.679Z,1017.44
2022-08-24T11:42:56.662Z,1017.42
2022-08-24T11:43:56.649Z,1017.42
2022-08-24T11:44:56.630Z,1017.39
2022-08-24T11:45:56.628Z,1017.43
2022-08-24T11:46:56.677Z,1017.37
2022-08-24T11:47:56.597Z,1017.41
2022-08-24T11:48:56.604Z,1017.42
2022-08-24T11:49:56.586Z,1017.35
2022-08-24T11:50:56.586Z,1017.40
2022-08-24T11:51:56.595Z,1017.31
2022-08-24T11:52:56.546Z,1017.29
2022-08-24T11:53:56.567Z,1017.23
2022-08-24T11:54:56.536Z,1017.27
2022-08-24T11:55:57.152Z,1017.31
2022-08-24T11:56:56.524Z,1017.29
2022-08-24T11:57:56.498Z,1017.26
2022-08-24T11:58:56.498Z,1017.27
2022-08-24T11:59:56.499Z,1017.23
2022-08-24T12:00:56.484Z,1017.26
2022-08-24T12:01:56.583Z,1017.23
2022-08-24T12:02:56.634Z,1017.20
2022-08-24T12:03:56.433Z,1017.17
2022-08-24T12:04:56.439Z,1017.20
2022-08-24T12:05:56.409Z,1017.16